createdAt,value
2023-01-30T00:01:01.328Z,24.80
2023-01-30T00:03:28.759Z,25.25
2023-01-30T00:06:00.755Z,25.58
2023-01-30T00:08:28.318Z,24.70
2023-01-30T00:10:55.718Z,24.52
2023-01-30T00:13:23.119Z,24.88
2023-01-30T00:15:50.399Z,23.95
2023-01-30T00:18:17.726Z,23.48
2023-01-30T00:20:45.078Z,25.65
2023-01-30T00:23:12.413Z,23.73
2023-01-30T00:25:39.984Z,24.13
2023-01-30T00:28:07.410Z,24.88
2023-01-30T00:30:36.047Z,23.73
2023-01-30T00:33:03.504Z,23.58
2023-01-30T00:35:30.936Z,22.85
2023-01-30T00:37:59.442Z,24.00
2023-01-30T00:40:28.807Z,23.63
2023-01-30T00:43:14.997Z,24.17
2023-01-30T00:46:04.056Z,23.73
2023-01-30T00:48:32.352Z,24.17
2023-01-30T00:50:59.654Z,23.40
2023-01-30T00:53:28.214Z,22.92
2023-01-30T00:55:56.286Z,23.92
2023-01-30T00:58:24.390Z,23.50
2023-01-30T01:00:52.342Z,23.48
2023-01-30T01:03:20.445Z,23.67
2023-01-30T01:05:48.517Z,24.20
2023-01-30T01:08:16.613Z,23.35
2023-01-30T01:10:44.044Z,24.20
2023-01-30T01:13:11.387Z,23.13
2023-01-30T01:15:38.727Z,23.52
2023-01-30T01:18:06.388Z,24.63
2023-01-30T01:20:33.973Z,23.63
2023-01-30T01:23:01.268Z,23.88
2023-01-30T01:25:28.829Z,24.77
2023-01-30T01:27:56.200Z,23.17
2023-01-30T01:30:23.691Z,24.00
2023-01-30T01:32:51.093Z,24.30
2023-01-30T01:35:20.199Z,25.00
2023-01-30T01:37:47.823Z,25.92
2023-01-30T01:40:39.038Z,25.35
2023-01-30T01:43:19.874Z,24.50
2023-01-30T01:45:51.743Z,25.55
2023-01-30T01:48:26.996Z,24.30
2023-01-30T01:51:01.831Z,25.40
2023-01-30T01:53:35.295Z,24.67
2023-01-30T01:56:05.531Z,25.60
2023-01-30T01:59:06.159Z,23.20
2023-01-30T02:01:33.998Z,25.20
2023-01-30T02:04:05.766Z,24.63
2023-01-30T02:09:08.663Z,25.00
2023-01-30T02:11:56.103Z,26.48
2023-01-30T02:14:23.794Z,25.60
2023-01-30T02:16:51.526Z,25.75
2023-01-30T02:19:45.208Z,25.83
2023-01-30T02:22:18.805Z,24.90
2023-01-30T02:25:08.148Z,24.15
2023-01-30T02:28:10.483Z,26.05
2023-01-30T02:31:02.622Z,24.60
2023-01-30T02:33:43.243Z,23.70
2023-01-30T02:36:15.623Z,24.45
2023-01-30T02:38:55.923Z,24.60
2023-01-30T02:41:42.142Z,24.35
2023-01-30T02:44:29.508Z,24.08
2023-01-30T02:46:59.084Z,24.27
2023-01-30T02:49:40.224Z,23.85
2023-01-30T02:52:11.895Z,24.20
2023-01-30T02:54:39.270Z,24.73
2023-01-30T02:57:25.633Z,24.90
2023-01-30T03:00:03.048Z,24.05
2023-01-30T03:02:31.629Z,25.25
2023-01-30T03:05:11.557Z,25.90
2023-01-30T03:07:47.965Z,24.98
2023-01-30T03:10:31.156Z,24.65
2023-01-30T03:13:14.873Z,24.77
2023-01-30T03:15:49.852Z,24.45
2023-01-30T03:18:19.656Z,24.88
2023-01-30T03:20:47.701Z,24.58
2023-01-30T03:23:33.874Z,24.40
2023-01-30T03:26:11.085Z,22.75
2023-01-30T03:28:38.671Z,22.80
2023-01-30T03:31:06.299Z,21.33
2023-01-30T03:33:33.639Z,21.80
2023-01-30T03:36:01.117Z,21.77
2023-01-30T03:38:28.438Z,21.42
2023-01-30T03:40:55.953Z,21.02
2023-01-30T03:43:23.351Z,21.80
2023-01-30T03:45:50.963Z,21.00
2023-01-30T03:48:18.406Z,20.15
2023-01-30T03:50:45.794Z,19.52
2023-01-30T03:53:13.135Z,19.92
2023-01-30T03:55:40.684Z,18.88
2023-01-30T03:58:08.045Z,18.10
2023-01-30T04:00:35.615Z,18.38
2023-01-30T04:03:03.537Z,17.88
2023-01-30T04:05:32.178Z,18.90
2023-01-30T04:08:04.457Z,19.63
2023-01-30T04:10:31.808Z,19.27
2023-01-30T04:12:59.126Z,19.48
2023-01-30T04:15:27.274Z,18.33
2023-01-30T04:18:13.306Z,17.77
2023-01-30T04:20:40.811Z,18.10
2023-01-30T04:23:08.380Z,18.88
2023-01-30T04:25:35.885Z,18.40
2023-01-30T04:28:07.952Z,18.83
2023-01-30T04:30:37.995Z,18.02
2023-01-30T04:33:25.850Z,19.10
2023-01-30T04:35:59.962Z,18.98
2023-01-30T04:38:30.438Z,19.70
2023-01-30T04:40:58.975Z,19.40
2023-01-30T04:43:29.894Z,19.17
2023-01-30T04:46:03.399Z,18.95
2023-01-30T04:48:31.026Z,18.67
2023-01-30T04:51:00.672Z,18.88
2023-01-30T04:53:28.746Z,18.85
2023-01-30T04:55:56.312Z,18.98
2023-01-30T04:58:23.830Z,17.83
2023-01-30T05:00:51.417Z,16.52
2023-01-30T05:03:18.922Z,17.67
2023-01-30T05:05:47.584Z,16.88
2023-01-30T05:08:17.448Z,17.63
2023-01-30T05:10:44.946Z,16.33
2023-01-30T05:13:12.398Z,15.55
2023-01-30T05:15:40.416Z,15.45
2023-01-30T05:18:07.989Z,15.00
2023-01-30T05:20:35.532Z,15.05
2023-01-30T05:23:02.958Z,15.18
2023-01-30T05:25:30.662Z,14.93
2023-01-30T05:27:58.081Z,15.32
2023-01-30T05:30:25.543Z,14.75
2023-01-30T05:32:53.092Z,14.57
2023-01-30T05:35:20.818Z,14.73
2023-01-30T05:37:52.388Z,14.40
2023-01-30T05:40:19.962Z,13.05
2023-01-30T05:42:47.393Z,12.75
2023-01-30T05:45:15.123Z,13.57
2023-01-30T05:47:42.660Z,13.90
2023-01-30T05:50:11.029Z,14.00
2023-01-30T05:52:38.545Z,13.27
2023-01-30T05:55:07.211Z,12.85
2023-01-30T05:57:34.789Z,12.77
2023-01-30T06:00:02.611Z,13.38
2023-01-30T06:02:40.337Z,12.90
2023-01-30T06:05:08.655Z,13.48
2023-01-30T06:07:36.261Z,14.07
2023-01-30T06:10:04.096Z,13.25
2023-01-30T06:12:31.730Z,12.82
2023-01-30T06:14:59.352Z,13.10
2023-01-30T06:17:29.056Z,12.68
2023-01-30T06:19:57.307Z,13.20
2023-01-30T06:22:24.757Z,13.27
2023-01-30T06:24:52.226Z,13.27
2023-01-30T06:27:19.681Z,13.35
2023-01-30T06:29:47.135Z,14.25
2023-01-30T06:32:15.081Z,14.73
2023-01-30T06:34:42.593Z,16.40
2023-01-30T06:37:09.990Z,15.88
2023-01-30T06:39:37.539Z,15.65
2023-01-30T06:42:05.637Z,15.82
2023-01-30T06:44:33.334Z,15.77
2023-01-30T06:47:00.791Z,15.88
2023-01-30T06:49:28.272Z,15.93
2023-01-30T06:51:55.719Z,16.83
2023-01-30T06:54:23.293Z,16.90
2023-01-30T06:56:50.942Z,16.10
2023-01-30T06:59:18.603Z,16.38
2023-01-30T07:01:46.104Z,16.40
2023-01-30T07:04:13.908Z,16.95
2023-01-30T07:06:41.506Z,16.45
2023-01-30T07:09:09.005Z,16.17
2023-01-30T07:11:36.387Z,17.00
2023-01-30T07:14:05.683Z,15.75
2023-01-30T07:16:33.753Z,16.48
2023-01-30T07:19:01.252Z,15.98
2023-01-30T07:21:29.034Z,16.27
2023-01-30T07:23:56.511Z,16.17
2023-01-30T07:26:25.030Z,16.05
2023-01-30T07:28:52.520Z,17.30
2023-01-30T07:31:20.039Z,17.08
2023-01-30T07:33:47.922Z,17.05
2023-01-30T07:36:15.345Z,16.65
2023-01-30T07:38:42.727Z,16.67
2023-01-30T07:41:10.151Z,16.33
2023-01-30T07:43:37.764Z,17.13
2023-01-30T07:46:05.319Z,15.95
2023-01-30T07:48:32.698Z,17.02
2023-01-30T07:51:00.259Z,16.45
2023-01-30T07:53:27.835Z,17.85
2023-01-30T07:55:55.232Z,16.13
2023-01-30T07:58:22.676Z,17.45
2023-01-30T08:00:50.133Z,16.88
2023-01-30T08:03:17.738Z,17.27
2023-01-30T08:05:48.346Z,17.70
2023-01-30T08:08:16.128Z,17.35
2023-01-30T08:10:43.732Z,19.20
2023-01-30T08:13:11.185Z,17.40
2023-01-30T08:15:38.489Z,19.10
2023-01-30T08:18:07.463Z,17.50
2023-01-30T08:20:35.009Z,19.67
2023-01-30T08:23:02.659Z,22.70
2023-01-30T08:25:30.766Z,20.10
2023-01-30T08:28:00.414Z,19.05
2023-01-30T08:30:30.383Z,21.38
2023-01-30T08:32:58.671Z,19.63
2023-01-30T08:35:26.211Z,19.95
2023-01-30T08:37:53.667Z,22.48
2023-01-30T08:40:21.417Z,22.90
2023-01-30T08:42:48.974Z,23.92
2023-01-30T08:45:16.429Z,24.23
2023-01-30T08:47:43.997Z,22.95
2023-01-30T08:50:11.638Z,25.15
2023-01-30T08:52:39.159Z,23.95
2023-01-30T08:55:06.898Z,25.35
2023-01-30T08:57:34.432Z,23.55
2023-01-30T09:00:03.835Z,24.08
2023-01-30T09:02:31.748Z,25.63
2023-01-30T09:04:59.185Z,24.88
2023-01-30T09:07:28.879Z,28.67
2023-01-30T09:09:56.364Z,29.83
2023-01-30T09:12:24.602Z,24.70
2023-01-30T09:14:53.909Z,24.45
2023-01-30T09:17:21.992Z,24.00
2023-01-30T09:19:49.511Z,24.08
2023-01-30T09:22:17.263Z,25.88
2023-01-30T09:24:44.973Z,25.23
2023-01-30T09:27:12.425Z,26.77
2023-01-30T09:29:40.097Z,27.50
2023-01-30T09:32:07.587Z,23.92
2023-01-30T09:34:34.960Z,25.13
2023-01-30T09:37:04.802Z,25.42
2023-01-30T09:39:32.596Z,25.30
2023-01-30T09:42:06.251Z,23.88
2023-01-30T09:45:00.143Z,22.98
2023-01-30T09:47:43.774Z,23.98
2023-01-30T09:50:47.081Z,25.52
2023-01-30T09:53:31.782Z,26.25
2023-01-30T09:55:59.603Z,26.35
2023-01-30T09:58:41.460Z,25.80
2023-01-30T10:01:20.727Z,25.25
2023-01-30T10:04:14.102Z,27.40
2023-01-30T10:06:57.441Z,26.83
2023-01-30T10:10:02.169Z,27.63
2023-01-30T10:12:41.742Z,26.42
2023-01-30T10:15:25.210Z,27.38
2023-01-30T10:18:13.861Z,27.48
2023-01-30T10:21:04.174Z,27.52
2023-01-30T10:24:00.833Z,28.92
2023-01-30T10:26:29.018Z,27.27
2023-01-30T10:29:07.551Z,28.13
2023-01-30T10:32:08.103Z,27.42
2023-01-30T10:34:40.289Z,27.70
2023-01-30T10:37:13.768Z,28.90
2023-01-30T10:40:02.779Z,29.02
2023-01-30T10:42:50.618Z,28.60
2023-01-30T10:45:44.649Z,30.42
2023-01-30T10:48:47.374Z,29.88
2023-01-30T10:51:44.405Z,30.00
2023-01-30T10:54:27.921Z,31.88
2023-01-30T10:57:19.194Z,32.17
2023-01-30T10:59:56.184Z,33.80
2023-01-30T11:02:32.502Z,34.78
2023-01-30T11:05:04.215Z,34.97
2023-01-30T11:07:33.663Z,34.67
2023-01-30T11:10:01.309Z,33.30
2023-01-30T11:12:28.671Z,34.58
2023-01-30T11:15:01.346Z,35.15
2023-01-30T11:17:32.741Z,33.83
2023-01-30T11:20:13.787Z,32.50
2023-01-30T11:23:06.564Z,32.53
2023-01-30T11:26:05.517Z,34.30
2023-01-30T11:28:43.936Z,33.45
2023-01-30T11:31:31.521Z,33.47
2023-01-30T11:34:12.914Z,32.17
2023-01-30T11:36:40.518Z,32.08
2023-01-30T11:39:21.103Z,33.63
2023-01-30T11:41:55.479Z,32.25
2023-01-30T11:44:42.553Z,31.73
2023-01-30T11:47:19.457Z,32.88
2023-01-30T11:50:11.028Z,32.70
2023-01-30T11:52:44.105Z,31.80
2023-01-30T11:55:15.708Z,33.10
2023-01-30T11:57:58.579Z,32.05
2023-01-30T12:00:39.876Z,31.88
2023-01-30T12:03:12.194Z,34.03
2023-01-30T12:05:42.719Z,32.13
2023-01-30T12:08:40.790Z,33.72
2023-01-30T12:11:31.427Z,32.30
2023-01-30T12:14:16.395Z,33.00
2023-01-30T12:16:53.960Z,31.55
2023-01-30T12:19:45.845Z,31.50
2023-01-30T12:22:23.178Z,31.95
2023-01-30T12:25:01.810Z,32.33
2023-01-30T12:27:52.455Z,31.00
2023-01-30T12:30:31.260Z,31.42
2023-01-30T12:33:03.888Z,30.45
2023-01-30T12:35:52.471Z,32.85
2023-01-30T12:38:30.811Z,25.98
2023-01-30T12:41:13.325Z,25.55
2023-01-30T12:44:05.340Z,23.88
2023-01-30T12:46:59.411Z,23.05
2023-01-30T12:49:51.552Z,24.70
2023-01-30T12:52:28.102Z,29.17
2023-01-30T12:57:49.108Z,28.88
2023-01-30T13:00:16.750Z,28.80
2023-01-30T13:03:09.264Z,30.92
2023-01-30T13:08:26.973Z,28.50
2023-01-30T13:11:21.859Z,30.08
2023-01-30T13:14:15.567Z,31.08
2023-01-30T13:17:01.562Z,30.15
2023-01-30T13:19:51.787Z,31.67
2023-01-30T13:22:41.109Z,30.05
2023-01-30T13:25:14.405Z,28.88
2023-01-30T13:27:47.391Z,27.95
2023-01-30T13:30:17.998Z,27.17
2023-01-30T13:32:49.556Z,28.30
2023-01-30T13:35:26.043Z,27.67
2023-01-30T13:37:54.638Z,28.95
2023-01-30T13:40:38.552Z,57.03
2023-01-30T13:43:10.054Z,27.25
2023-01-30T13:45:42.240Z,25.88
2023-01-30T13:51:36.658Z,25.95
2023-01-30T13:54:13.057Z,25.73
2023-01-30T13:56:51.171Z,23.17
2023-01-30T13:59:39.296Z,23.75
2023-01-30T14:02:07.285Z,23.02
2023-01-30T14:04:40.832Z,26.00
2023-01-30T14:07:30.937Z,29.40
2023-01-30T14:10:07.255Z,29.50
2023-01-30T14:12:42.083Z,30.15
2023-01-30T14:15:16.262Z,30.25
2023-01-30T14:18:20.924Z,29.17
2023-01-30T14:20:51.084Z,29.58
2023-01-30T14:23:24.431Z,29.55
2023-01-30T14:25:56.509Z,29.67
2023-01-30T14:28:23.917Z,29.58
2023-01-30T14:30:55.817Z,28.10
2023-01-30T14:33:23.172Z,29.90
2023-01-30T14:36:02.863Z,28.45
2023-01-30T14:38:34.963Z,28.77
2023-01-30T14:41:02.225Z,27.25
2023-01-30T14:43:42.096Z,27.80
2023-01-30T14:46:18.784Z,27.33
2023-01-30T14:49:00.918Z,27.50
2023-01-30T14:51:40.466Z,28.98
2023-01-30T14:54:16.928Z,27.38
2023-01-30T14:56:59.664Z,30.35
2023-01-30T14:59:31.413Z,28.67
2023-01-30T15:02:07.953Z,29.27
2023-01-30T15:04:47.558Z,28.42
2023-01-30T15:07:20.563Z,29.60
2023-01-30T15:10:01.191Z,28.98
2023-01-30T15:12:43.109Z,28.10
2023-01-30T15:15:29.341Z,29.25
2023-01-30T15:18:08.542Z,29.75
2023-01-30T15:20:43.277Z,30.15
2023-01-30T15:23:25.131Z,29.08
2023-01-30T15:26:18.645Z,31.15
2023-01-30T15:28:52.059Z,29.63
2023-01-30T15:31:22.518Z,30.23
2023-01-30T15:33:52.413Z,29.98
2023-01-30T15:36:29.165Z,29.10
2023-01-30T15:39:04.851Z,29.42
2023-01-30T15:41:40.601Z,29.90
2023-01-30T15:44:28.024Z,29.90
2023-01-30T15:47:38.726Z,28.70
2023-01-30T15:50:10.297Z,28.58
2023-01-30T15:52:49.307Z,28.80
2023-01-30T15:55:29.633Z,29.92
2023-01-30T15:58:04.254Z,28.77
2023-01-30T16:00:37.329Z,29.75
2023-01-30T16:03:11.019Z,30.10
2023-01-30T16:05:47.559Z,30.52
2023-01-30T16:08:29.705Z,30.33
2023-01-30T16:13:24.804Z,28.85
2023-01-30T16:16:19.099Z,30.05
2023-01-30T16:18:58.156Z,30.70
2023-01-30T16:21:31.406Z,32.03
2023-01-30T16:24:25.757Z,30.10
2023-01-30T16:27:00.847Z,32.63
2023-01-30T16:29:31.438Z,30.25
2023-01-30T16:31:59.544Z,31.13
2023-01-30T16:34:27.194Z,31.52
2023-01-30T16:36:55.252Z,30.60
2023-01-30T16:39:34.274Z,31.15
2023-01-30T16:42:05.121Z,32.15
2023-01-30T16:44:32.705Z,30.50
2023-01-30T16:47:00.053Z,31.55
2023-01-30T16:49:36.425Z,30.42
2023-01-30T16:52:18.099Z,31.10
2023-01-30T16:54:52.220Z,31.42
2023-01-30T16:57:28.680Z,29.80
2023-01-30T16:59:56.401Z,30.90
2023-01-30T17:02:42.438Z,31.50
2023-01-30T17:05:20.898Z,32.58
2023-01-30T17:07:49.935Z,32.78
2023-01-30T17:10:42.040Z,32.42
2023-01-30T17:13:36.139Z,30.13
2023-01-30T17:16:21.784Z,31.67
2023-01-30T17:18:54.897Z,31.20
2023-01-30T17:21:25.555Z,32.65
2023-01-30T17:24:02.792Z,31.63
2023-01-30T17:26:31.627Z,31.98
2023-01-30T17:28:59.733Z,33.35
2023-01-30T17:31:27.189Z,34.33
2023-01-30T17:33:54.650Z,33.70
2023-01-30T17:36:27.399Z,33.17
2023-01-30T17:39:14.059Z,35.35
2023-01-30T17:41:42.931Z,35.03
2023-01-30T17:44:11.371Z,34.92
2023-01-30T17:46:41.108Z,35.92
2023-01-30T17:49:14.572Z,34.30
2023-01-30T17:51:42.877Z,34.80
2023-01-30T17:54:11.485Z,35.40
2023-01-30T17:56:41.413Z,36.58
2023-01-30T17:59:20.195Z,35.17
2023-01-30T18:01:49.774Z,34.92
2023-01-30T18:04:19.212Z,40.05
2023-01-30T18:06:49.431Z,36.78
2023-01-30T18:09:19.200Z,38.47
2023-01-30T18:11:47.448Z,37.90
2023-01-30T18:14:15.969Z,38.67
2023-01-30T18:16:44.745Z,37.70
2023-01-30T18:19:15.121Z,38.85
2023-01-30T18:21:45.144Z,38.22
2023-01-30T18:24:13.728Z,37.75
2023-01-30T18:26:42.538Z,37.60
2023-01-30T18:29:10.308Z,38.05
2023-01-30T18:31:39.321Z,38.33
2023-01-30T18:34:07.989Z,37.83
2023-01-30T18:36:36.438Z,38.85
2023-01-30T18:39:04.928Z,37.40
2023-01-30T18:41:32.555Z,38.40
2023-01-30T18:44:02.201Z,40.13
2023-01-30T18:46:30.314Z,40.22
2023-01-30T18:48:57.809Z,39.58
2023-01-30T18:51:28.028Z,37.90
2023-01-30T18:53:55.736Z,40.28
2023-01-30T18:56:33.387Z,40.15
2023-01-30T18:59:04.142Z,41.13
2023-01-30T19:01:42.600Z,39.45
2023-01-30T19:04:11.638Z,38.08
2023-01-30T19:06:42.055Z,38.15
2023-01-30T19:09:14.327Z,37.88
2023-01-30T19:12:00.243Z,38.28
2023-01-30T19:14:27.594Z,37.05
2023-01-30T19:16:55.005Z,39.17
2023-01-30T19:19:22.453Z,38.67
2023-01-30T19:21:52.169Z,37.35
2023-01-30T19:24:19.734Z,38.10
2023-01-30T19:26:48.360Z,37.17
2023-01-30T19:29:16.521Z,39.70
2023-01-30T19:31:44.199Z,39.40
2023-01-30T19:34:11.850Z,38.40
2023-01-30T19:36:39.815Z,38.75
2023-01-30T19:39:07.878Z,36.58
2023-01-30T19:41:36.749Z,38.92
2023-01-30T19:44:06.776Z,37.25
2023-01-30T19:46:34.723Z,39.17
2023-01-30T19:49:03.469Z,35.92
2023-01-30T19:51:33.591Z,39.33
2023-01-30T19:54:07.140Z,37.38
2023-01-30T19:56:36.601Z,38.95
2023-01-30T19:59:04.090Z,37.00
2023-01-30T20:01:35.427Z,36.67
2023-01-30T20:04:03.487Z,37.80
2023-01-30T20:06:35.841Z,37.33
2023-01-30T20:09:06.182Z,36.70
2023-01-30T20:11:35.979Z,35.78
2023-01-30T20:14:05.362Z,38.75
2023-01-30T20:16:34.794Z,35.65
2023-01-30T20:19:07.154Z,37.22
2023-01-30T20:21:35.902Z,36.33
2023-01-30T20:24:03.942Z,36.00
2023-01-30T20:26:37.387Z,37.70
2023-01-30T20:29:05.849Z,36.05
2023-01-30T20:31:34.883Z,36.78
2023-01-30T20:34:04.200Z,37.10
2023-01-30T20:36:31.768Z,39.08
2023-01-30T20:39:06.444Z,37.75
2023-01-30T20:41:35.778Z,36.08
2023-01-30T20:44:04.035Z,36.17
2023-01-30T20:46:39.666Z,35.97
2023-01-30T20:49:12.838Z,35.47
2023-01-30T20:51:40.336Z,35.85
2023-01-30T20:54:09.452Z,36.60
2023-01-30T20:56:40.140Z,36.58
2023-01-30T20:59:07.792Z,35.03
2023-01-30T21:01:35.945Z,36.05
2023-01-30T21:04:09.803Z,36.63
2023-01-30T21:06:43.567Z,37.20
2023-01-30T21:09:17.744Z,36.83
2023-01-30T21:11:45.932Z,37.75
2023-01-30T21:14:14.655Z,36.85
2023-01-30T21:16:42.142Z,36.30
2023-01-30T21:19:13.883Z,37.33
2023-01-30T21:21:51.301Z,37.20
2023-01-30T21:24:28.243Z,36.28
2023-01-30T21:26:56.290Z,38.83
2023-01-30T21:29:27.065Z,36.80
2023-01-30T21:31:56.375Z,37.08
2023-01-30T21:34:24.190Z,39.53
2023-01-30T21:37:10.267Z,38.75
2023-01-30T21:39:56.106Z,39.33
2023-01-30T21:42:42.045Z,43.20
2023-01-30T21:45:09.479Z,41.40
2023-01-30T21:47:37.123Z,39.13
2023-01-30T21:50:04.921Z,38.85
2023-01-30T21:52:33.317Z,37.95
2023-01-30T21:55:00.867Z,36.53
2023-01-30T21:57:28.253Z,36.80
2023-01-30T21:59:55.731Z,36.30
2023-01-30T22:02:23.115Z,35.17
2023-01-30T22:04:50.385Z,35.58
2023-01-30T22:07:17.903Z,35.90
2023-01-30T22:09:45.297Z,36.30
2023-01-30T22:12:12.710Z,37.50
2023-01-30T22:14:40.318Z,37.13
2023-01-30T22:17:07.736Z,33.92
2023-01-30T22:19:38.421Z,34.17
2023-01-30T22:22:05.924Z,35.20
2023-01-30T22:24:33.239Z,33.65
2023-01-30T22:27:00.606Z,34.45
2023-01-30T22:29:29.164Z,34.85
2023-01-30T22:31:56.623Z,35.17
2023-01-30T22:34:24.003Z,33.92
2023-01-30T22:36:51.870Z,34.63
2023-01-30T22:39:19.221Z,32.40
2023-01-30T22:41:46.596Z,33.38
2023-01-30T22:44:13.904Z,33.72
2023-01-30T22:46:41.680Z,34.20
2023-01-30T22:49:09.955Z,34.13
2023-01-30T22:51:40.645Z,33.30
2023-01-30T22:54:11.280Z,34.17
2023-01-30T22:56:41.225Z,33.22
2023-01-30T22:59:09.561Z,33.20
2023-01-30T23:01:42.201Z,30.95
2023-01-30T23:04:18.037Z,32.10
2023-01-30T23:06:45.731Z,32.22
2023-01-30T23:09:19.225Z,31.98
2023-01-30T23:12:09.959Z,31.23
2023-01-30T23:14:38.318Z,32.30
2023-01-30T23:17:25.907Z,30.73
2023-01-30T23:19:54.620Z,30.80
2023-01-30T23:22:22.606Z,31.38
2023-01-30T23:24:51.301Z,30.52
2023-01-30T23:27:20.632Z,31.23
2023-01-30T23:29:47.935Z,30.75
2023-01-30T23:32:19.095Z,30.23
2023-01-30T23:34:47.737Z,32.60
2023-01-30T23:37:15.954Z,31.58
2023-01-30T23:39:43.533Z,31.67
2023-01-30T23:42:10.951Z,31.60
2023-01-30T23:44:38.728Z,32.92
2023-01-30T23:47:06.156Z,32.90
2023-01-30T23:49:33.476Z,31.35
2023-01-30T23:52:00.821Z,31.38
2023-01-30T23:54:28.153Z,31.35
2023-01-30T23:56:55.567Z,31.50
2023-01-30T23:59:22.875Z,30.63
